Time;durP1;ratioP1;P1;durP2;ratioP2;P2;SDS_P1;SDS_P2;PMS_P1;PMS_P2;Temp;Humidity;BMP_temperature;BMP_pressure;BME280_temperature;BME280_humidity;BME280_pressure;Samples;Min_cycle;Max_cycle;Signal;HPM_P1;HPM_P2
2021/04/02 00:01:47;;;;;;;6.88;1.75;;;18.40;58.40;;;;;;10468880;28;20029;-57
2021/04/02 00:06:47;;;;;;;1.85;0.80;;;18.40;58.30;;;;;;10460296;28;20064;-57
2021/04/02 00:11:48;;;;;;;5.35;1.23;;;18.40;58.30;;;;;;10478560;28;20107;-57
2021/04/02 00:16:49;;;;;;;1.67;0.88;;;18.40;58.30;;;;;;10492566;28;20040;-56
2021/04/02 00:21:49;;;;;;;2.58;1.08;;;18.30;58.30;;;;;;10467912;28;20457;-57
2021/04/02 00:26:50;;;;;;;4.95;1.02;;;18.30;58.20;;;;;;10471570;28;20393;-57
2021/04/02 00:31:51;;;;;;;1.75;0.93;;;18.40;58.30;;;;;;10480422;28;20499;-57
2021/04/02 00:36:52;;;;;;;3.90;1.10;;;18.30;58.20;;;;;;10485183;28;20477;-58
2021/04/02 00:41:54;;;;;;;3.03;1.48;;;18.30;58.20;;;;;;10466884;28;20115;-57
2021/04/02 00:46:55;;;;;;;3.13;0.93;;;18.30;58.20;;;;;;10455952;28;20033;-57
2021/04/02 00:51:56;;;;;;;4.57;1.63;;;18.30;58.20;;;;;;10467923;28;20021;-57
2021/04/02 00:56:56;;;;;;;1.70;0.85;;;18.20;58.20;;;;;;10453840;28;20045;-57
2021/04/02 01:01:58;;;;;;;1.40;0.80;;;18.20;58.10;;;;;;10455202;28;20480;-57
2021/04/02 01:06:58;;;;;;;2.33;1.20;;;18.20;58.20;;;;;;10481107;28;20033;-57
2021/04/02 01:11:59;;;;;;;2.00;1.00;;;18.20;58.20;;;;;;10453812;28;20042;-57
2021/04/02 01:17:00;;;;;;;1.95;1.02;;;18.20;58.20;;;;;;10454446;28;20029;-57
2021/04/02 01:22:12;;;;;;;2.45;0.80;;;18.20;58.10;;;;;;10454971;28;20385;-57
2021/04/02 01:27:54;;;;;;;2.53;1.33;;;18.20;58.10;;;;;;10441124;28;20049;-57
2021/04/02 01:32:58;;;;;;;1.90;0.93;;;18.20;58.10;;;;;;10464185;28;20120;-57
2021/04/02 01:38:20;;;;;;;2.25;1.25;;;18.10;58.00;;;;;;10489548;28;20432;-57
2021/04/02 01:43:30;;;;;;;1.95;0.63;;;18.10;58.00;;;;;;10447594;28;20095;-57
2021/04/02 01:48:31;;;;;;;;;;;18.10;58.10;;;;;;10466094;28;20385;-57
2021/04/02 01:53:38;;;;;;;2.13;0.80;;;18.10;57.90;;;;;;10475068;28;19922;-56
2021/04/02 01:58:43;;;;;;;2.33;0.90;;;18.10;58.00;;;;;;10461679;28;20477;-57
2021/04/02 02:03:52;;;;;;;3.95;0.93;;;18.10;58.10;;;;;;10488690;28;20037;-57
2021/04/02 02:08:54;;;;;;;2.43;0.80;;;18.10;58.00;;;;;;10495415;28;20040;-57
2021/04/02 02:14:04;;;;;;;2.00;0.70;;;18.10;58.70;;;;;;10461498;28;20059;-57
2021/04/02 02:19:13;;;;;;;1.48;0.50;;;18.00;58.00;;;;;;10461555;28;20051;-57
2021/04/02 02:24:15;;;;;;;1.50;0.65;;;18.00;58.00;;;;;;10488689;28;20075;-57
2021/04/02 02:29:15;;;;;;;2.63;0.60;;;18.00;58.00;;;;;;10499661;28;20039;-57
2021/04/02 02:34:17;;;;;;;1.73;1.10;;;18.00;58.00;;;;;;10459303;28;20032;-57
2021/04/02 02:39:17;;;;;;;1.67;0.73;;;18.00;58.00;;;;;;10481634;28;20071;-57
2021/04/02 02:44:18;;;;;;;2.63;0.73;;;17.90;57.90;;;;;;10461066;28;20474;-57
2021/04/02 02:49:20;;;;;;;1.50;0.70;;;17.90;57.80;;;;;;10459979;28;20037;-57
2021/04/02 02:54:22;;;;;;;1.67;0.68;;;17.90;57.90;;;;;;10451260;28;20040;-57
2021/04/02 02:59:26;;;;;;;1.10;0.70;;;18.00;58.00;;;;;;10498129;28;20028;-57
2021/04/02 03:04:28;;;;;;;2.45;0.88;;;17.90;57.90;;;;;;10487857;28;20379;-57
2021/04/02 03:09:30;;;;;;;1.70;0.90;;;17.90;57.90;;;;;;10469434;28;20115;-57
2021/04/02 03:14:33;;;;;;;1.77;0.80;;;17.90;57.70;;;;;;10466196;28;20028;-57
2021/04/02 03:19:34;;;;;;;2.38;0.73;;;17.90;57.80;;;;;;10464225;28;20036;-57
2021/04/02 03:24:38;;;;;;;1.40;0.70;;;17.90;57.80;;;;;;10444256;28;20579;-57
2021/04/02 03:29:39;;;;;;;2.08;0.63;;;17.90;57.80;;;;;;10456738;28;20424;-57
2021/04/02 03:34:41;;;;;;;2.22;0.82;;;17.90;57.90;;;;;;10478163;28;20025;-57
2021/04/02 03:39:44;;;;;;;1.60;0.57;;;17.90;57.80;;;;;;10494265;28;20120;-57
2021/04/02 03:44:47;;;;;;;2.92;1.25;;;17.90;57.80;;;;;;10459480;28;20044;-56
2021/04/02 03:49:50;;;;;;;1.98;0.60;;;17.90;57.70;;;;;;10458530;28;20031;-57
2021/04/02 03:54:52;;;;;;;1.55;0.60;;;17.90;57.60;;;;;;10455605;28;20032;-57
2021/04/02 03:59:58;;;;;;;2.97;0.70;;;17.90;57.60;;;;;;10456738;28;20013;-57
2021/04/02 04:05:00;;;;;;;3.03;0.77;;;17.90;57.60;;;;;;10489060;28;20024;-57
2021/04/02 04:10:02;;;;;;;2.30;0.85;;;17.90;57.80;;;;;;10463023;28;20064;-57
2021/04/02 04:15:04;;;;;;;1.98;0.77;;;17.80;57.60;;;;;;10464267;28;20568;-57
2021/04/02 04:20:07;;;;;;;1.35;0.60;;;17.80;57.70;;;;;;10461440;28;20029;-57
2021/04/02 04:25:09;;;;;;;1.42;0.68;;;17.80;57.50;;;;;;10452733;28;20045;-56
2021/04/02 04:30:16;;;;;;;1.95;0.65;;;17.80;57.60;;;;;;10468707;28;20025;-57
2021/04/02 04:35:18;;;;;;;0.65;0.40;;;17.80;57.70;;;;;;10471897;28;20095;-57
2021/04/02 04:40:23;;;;;;;0.85;0.55;;;17.80;57.70;;;;;;10480065;28;20031;-57
2021/04/02 04:45:25;;;;;;;1.08;0.60;;;17.80;57.70;;;;;;10474403;28;20033;-57
2021/04/02 04:50:26;;;;;;;1.67;0.75;;;17.80;57.70;;;;;;10472465;28;20033;-57
2021/04/02 04:55:31;;;;;;;0.85;0.45;;;17.80;57.60;;;;;;10466192;28;20052;-57
2021/04/02 05:00:32;;;;;;;1.13;0.57;;;17.80;57.50;;;;;;10484856;28;20041;-57
2021/04/02 05:05:39;;;;;;;0.52;0.50;;;17.80;57.70;;;;;;10488984;28;20032;-56
2021/04/02 05:10:43;;;;;;;0.93;0.60;;;17.80;57.50;;;;;;10464510;28;20033;-57
2021/04/02 05:15:45;;;;;;;1.10;0.47;;;17.80;57.50;;;;;;10475007;28;20065;-57
2021/04/02 05:20:46;;;;;;;1.10;0.50;;;17.80;57.60;;;;;;10468313;28;20076;-57
2021/04/02 05:25:47;;;;;;;6.00;1.17;;;17.80;57.50;;;;;;10481620;28;20447;-59
2021/04/02 05:30:48;;;;;;;8.75;1.85;;;17.90;58.70;;;;;;10491951;28;20118;-58
2021/04/02 05:35:49;;;;;;;11.20;1.88;;;17.80;59.20;;;;;;10461588;28;20147;-62
2021/04/02 05:40:49;;;;;;;9.75;1.90;;;17.80;60.30;;;;;;10495175;28;20028;-62
2021/04/02 05:45:52;;;;;;;9.00;1.70;;;17.90;60.40;;;;;;10503773;28;20048;-58
2021/04/02 05:50:54;;;;;;;9.50;1.90;;;17.90;60.60;;;;;;10461577;28;20375;-59
2021/04/02 05:55:59;;;;;;;9.32;2.15;;;17.90;61.00;;;;;;10461145;28;20111;-60
2021/04/02 06:01:00;;;;;;;11.70;2.40;;;17.90;61.30;;;;;;10463200;28;20606;-60
2021/04/02 06:06:01;;;;;;;24.50;4.47;;;17.90;60.50;;;;;;10473934;28;20175;-63
2021/04/02 06:11:01;;;;;;;27.08;3.53;;;18.00;60.90;;;;;;10484901;28;20083;-59
2021/04/02 06:16:03;;;;;;;19.42;4.15;;;18.00;60.60;;;;;;10466309;28;20021;-62
2021/04/02 06:21:04;;;;;;;20.25;3.42;;;18.00;61.00;;;;;;10456634;28;20079;-59
2021/04/02 06:26:10;;;;;;;24.73;5.07;;;18.00;61.20;;;;;;10469939;28;20048;-60
2021/04/02 06:31:14;;;;;;;16.48;2.30;;;18.10;61.00;;;;;;10473437;28;20037;-61
2021/04/02 06:36:23;;;;;;;14.70;3.53;;;18.10;60.90;;;;;;10458748;28;20037;-64
2021/04/02 06:41:27;;;;;;;13.50;2.93;;;18.10;61.40;;;;;;10459661;28;20112;-64
2021/04/02 06:46:34;;;;;;;14.30;3.30;;;18.20;61.60;;;;;;10476870;28;20369;-58
2021/04/02 06:51:37;;;;;;;19.33;3.38;;;18.20;61.10;;;;;;10459434;28;20036;-57
2021/04/02 06:56:45;;;;;;;19.77;4.30;;;18.10;61.40;;;;;;10459830;28;20433;-60
2021/04/02 07:01:51;;;;;;;16.98;2.75;;;18.10;62.30;;;;;;10466540;28;20461;-58
2021/04/02 07:06:53;;;;;;;13.07;3.03;;;18.20;62.10;;;;;;10476817;28;20085;-57
2021/04/02 07:12:02;;;;;;;20.92;4.95;;;18.20;61.60;;;;;;10500088;28;20115;-58
2021/04/02 07:17:04;;;;;;;;;;;18.10;61.00;;;;;;10479788;28;20029;-58
2021/04/02 07:22:05;;;;;;;15.55;3.38;;;18.00;60.80;;;;;;10452776;28;19940;-59
2021/04/02 07:27:06;;;;;;;20.45;3.15;;;18.00;60.60;;;;;;10458228;28;20056;-58
2021/04/02 07:32:08;;;;;;;12.80;2.65;;;18.00;60.50;;;;;;10458676;28;20063;-59
2021/04/02 07:37:11;;;;;;;12.60;3.05;;;18.00;60.30;;;;;;10456006;28;20120;-58
2021/04/02 07:42:12;;;;;;;13.35;2.63;;;17.90;59.90;;;;;;10456664;28;20135;-58
2021/04/02 07:47:13;;;;;;;12.65;2.13;;;17.90;59.50;;;;;;10457844;28;20040;-59
2021/04/02 07:52:14;;;;;;;16.40;3.05;;;17.90;59.10;;;;;;10457480;28;20033;-59
2021/04/02 07:57:16;;;;;;;21.92;3.88;;;17.90;59.00;;;;;;10455904;28;20037;-57
2021/04/02 08:02:29;;;;;;;21.45;3.88;;;17.90;59.10;;;;;;10457199;28;20021;-58
2021/04/02 08:07:42;;;;;;;45.92;6.32;;;18.00;59.20;;;;;;10460077;28;20086;-62
2021/04/02 08:12:42;;;;;;;44.72;5.57;;;18.00;58.30;;;;;;10456745;28;20033;-63
2021/04/02 08:17:46;;;;;;;35.92;5.30;;;18.00;58.50;;;;;;10461143;28;20394;-58
2021/04/02 08:22:51;;;;;;;25.90;5.65;;;18.10;58.90;;;;;;10468300;28;21410;-60
2021/04/02 08:27:52;;;;;;;25.92;4.07;;;18.10;59.10;;;;;;10448171;28;20802;-62
2021/04/02 08:32:56;;;;;;;32.03;5.55;;;18.10;59.60;;;;;;10454957;28;20116;-59
2021/04/02 08:38:02;;;;;;;43.13;7.22;;;18.10;59.60;;;;;;10454394;28;20033;-56
2021/04/02 08:43:05;;;;;;;63.33;8.15;;;18.10;60.80;;;;;;10453546;28;20491;-61
2021/04/02 08:48:07;;;;;;;49.28;9.57;;;18.20;61.30;;;;;;10454326;28;20040;-56
2021/04/02 08:53:10;;;;;;;33.28;7.80;;;18.30;61.10;;;;;;10453742;28;20029;-59
2021/04/02 08:58:12;;;;;;;46.20;7.85;;;18.30;60.70;;;;;;10455199;28;20390;-57
2021/04/02 09:03:12;;;;;;;38.47;6.72;;;18.20;60.40;;;;;;10455231;28;20086;-55
2021/04/02 09:08:13;;;;;;;37.17;7.22;;;18.20;63.40;;;;;;10461968;28;20110;-56
2021/04/02 09:13:14;;;;;;;47.03;8.05;;;18.20;63.10;;;;;;10493957;28;20028;-55
2021/04/02 09:18:27;;;;;;;53.40;9.65;;;18.20;63.80;;;;;;10494314;28;20036;-56
2021/04/02 09:23:27;;;;;;;38.03;7.88;;;18.20;62.70;;;;;;10489733;28;20037;-56
2021/04/02 09:28:29;;;;;;;46.10;6.13;;;18.20;64.80;;;;;;10454645;28;20090;-56
2021/04/02 09:33:29;;;;;;;36.28;8.45;;;18.20;64.40;;;;;;10453702;28;20032;-55
2021/04/02 09:38:32;;;;;;;38.92;6.30;;;18.20;64.30;;;;;;10454625;28;20125;-56
2021/04/02 09:43:48;;;;;;;44.30;9.90;;;18.20;64.40;;;;;;10489488;28;20342;-56
2021/04/02 09:48:48;;;;;;;41.15;8.75;;;18.10;63.20;;;;;;10455627;28;20048;-56
2021/04/02 09:53:49;;;;;;;32.05;7.35;;;18.10;64.10;;;;;;10453396;28;20529;-56
2021/04/02 09:58:50;;;;;;;30.17;5.90;;;18.10;64.10;;;;;;10453469;28;20036;-56
2021/04/02 10:03:51;;;;;;;31.88;7.13;;;18.10;64.00;;;;;;10459813;28;20535;-56
2021/04/02 10:08:52;;;;;;;34.60;6.57;;;18.10;64.20;;;;;;10464579;28;20040;-56
2021/04/02 10:13:53;;;;;;;39.53;6.22;;;18.10;64.20;;;;;;10460825;28;20071;-56
2021/04/02 10:18:54;;;;;;;32.83;6.35;;;18.10;63.90;;;;;;10460608;28;20033;-57
2021/04/02 10:23:55;;;;;;;32.03;6.72;;;18.10;63.50;;;;;;10460492;28;20045;-58
2021/04/02 10:28:56;;;;;;;27.38;5.55;;;18.10;63.70;;;;;;10460628;28;20512;-56
2021/04/02 10:33:57;;;;;;;23.35;5.47;;;18.10;63.90;;;;;;10460450;28;20109;-57
2021/04/02 10:38:58;;;;;;;30.48;5.70;;;18.20;62.90;;;;;;10459082;28;20486;-57
2021/04/02 10:43:58;;;;;;;28.83;5.53;;;18.30;63.00;;;;;;10460446;28;20057;-57
2021/04/02 10:48:59;;;;;;;37.65;7.63;;;18.60;62.60;;;;;;10464976;28;20028;-55
2021/04/02 10:54:03;;;;;;;32.03;7.05;;;18.70;62.80;;;;;;10480807;28;20099;-55
2021/04/02 10:59:04;;;;;;;35.45;7.72;;;18.80;62.20;;;;;;10461227;28;20039;-57
2021/04/02 11:04:05;;;;;;;34.50;5.95;;;18.90;62.20;;;;;;10458632;28;20039;-54
2021/04/02 11:09:08;;;;;;;33.28;6.07;;;18.90;61.60;;;;;;10462796;28;20031;-55
2021/04/02 11:14:09;;;;;;;34.17;6.65;;;19.00;62.10;;;;;;10456245;28;20090;-54
2021/04/02 11:19:09;;;;;;;30.48;6.68;;;19.00;61.90;;;;;;10459295;28;20055;-54
2021/04/02 11:24:10;;;;;;;31.40;6.80;;;18.90;62.10;;;;;;10456374;28;20053;-53
2021/04/02 11:29:11;;;;;;;24.10;5.43;;;19.00;62.20;;;;;;10458244;28;20078;-56
2021/04/02 11:34:12;;;;;;;27.42;5.53;;;18.90;61.60;;;;;;10468137;28;20544;-56
2021/04/02 11:39:12;;;;;;;23.48;4.22;;;18.90;61.50;;;;;;10491005;28;20028;-58
2021/04/02 11:44:13;;;;;;;21.70;5.03;;;19.00;61.70;;;;;;10492548;28;20025;-55
2021/04/02 11:49:14;;;;;;;22.98;4.10;;;18.90;61.70;;;;;;10479913;28;20466;-55
2021/04/02 11:54:15;;;;;;;27.80;4.25;;;19.00;61.50;;;;;;10473926;28;20035;-56
2021/04/02 11:59:16;;;;;;;23.92;4.82;;;19.10;62.30;;;;;;10496184;28;20036;-53
2021/04/02 12:04:16;;;;;;;22.60;4.82;;;19.10;62.00;;;;;;10455901;28;20504;-55
2021/04/02 12:09:17;;;;;;;17.10;4.80;;;19.00;61.90;;;;;;10470165;28;20032;-56
2021/04/02 12:14:18;;;;;;;42.20;12.93;;;19.20;61.90;;;;;;10474591;28;20103;-54
2021/04/02 12:19:19;;;;;;;45.03;12.60;;;19.20;62.30;;;;;;10456875;28;20492;-55
2021/04/02 12:24:20;;;;;;;38.63;11.07;;;19.20;62.90;;;;;;10480616;28;20072;-55
2021/04/02 12:29:20;;;;;;;36.60;9.63;;;19.20;63.50;;;;;;10485959;28;20060;-56
2021/04/02 12:34:21;;;;;;;36.33;9.43;;;19.20;63.10;;;;;;10454303;28;20055;-58
2021/04/02 12:39:22;;;;;;;28.98;9.77;;;19.30;63.60;;;;;;10469558;28;20033;-55
2021/04/02 12:44:22;;;;;;;30.08;8.93;;;19.20;64.30;;;;;;10470013;28;20056;-58
2021/04/02 12:49:23;;;;;;;34.47;8.68;;;19.20;64.70;;;;;;10455057;28;20056;-55
2021/04/02 12:54:24;;;;;;;28.08;9.00;;;19.20;64.40;;;;;;10465929;28;20047;-59
2021/04/02 12:59:24;;;;;;;31.23;9.38;;;19.10;63.80;;;;;;10462914;28;20032;-56
2021/04/02 13:04:25;;;;;;;34.03;8.07;;;19.10;64.10;;;;;;10467028;28;20537;-58
2021/04/02 13:09:26;;;;;;;24.30;7.43;;;19.00;64.00;;;;;;10464122;28;20037;-60
2021/04/02 13:14:26;;;;;;;22.35;6.95;;;18.90;63.00;;;;;;10468160;28;20076;-61
2021/04/02 13:19:27;;;;;;;22.30;7.93;;;18.90;62.30;;;;;;10475630;28;20115;-60
2021/04/02 13:24:28;;;;;;;20.95;6.93;;;18.90;61.80;;;;;;10494509;28;20537;-59
2021/04/02 13:29:29;;;;;;;21.27;7.22;;;18.90;61.60;;;;;;10494955;28;20500;-59
2021/04/02 13:34:29;;;;;;;24.77;6.15;;;19.00;62.30;;;;;;10493482;28;20028;-56
2021/04/02 13:39:30;;;;;;;16.77;5.53;;;19.00;61.80;;;;;;10500064;28;20549;-61
2021/04/02 13:44:31;;;;;;;17.92;6.40;;;19.00;61.90;;;;;;10491375;28;20140;-61
2021/04/02 13:49:32;;;;;;;19.52;6.70;;;19.00;61.90;;;;;;10460372;28;20040;-61
2021/04/02 13:54:32;;;;;;;18.80;5.00;;;19.00;61.40;;;;;;10461758;28;20497;-61
2021/04/02 13:59:33;;;;;;;14.35;5.50;;;19.10;61.20;;;;;;10461357;28;20051;-60
2021/04/02 14:04:35;;;;;;;14.05;4.78;;;19.10;61.00;;;;;;10459871;28;20060;-63
2021/04/02 14:09:35;;;;;;;18.48;5.30;;;19.10;60.90;;;;;;10465214;28;20029;-63
2021/04/02 14:14:36;;;;;;;16.38;5.40;;;19.10;60.70;;;;;;10460974;28;20691;-63
2021/04/02 14:19:37;;;;;;;19.92;5.32;;;19.10;60.70;;;;;;10460971;28;20032;-64
2021/04/02 14:24:39;;;;;;;13.80;4.97;;;19.00;60.70;;;;;;10460454;28;20055;-63
2021/04/02 14:29:40;;;;;;;10.13;4.22;;;19.10;60.60;;;;;;10460585;28;20033;-63
2021/04/02 14:34:40;;;;;;;13.75;4.40;;;19.10;60.60;;;;;;10460438;28;20103;-63
2021/04/02 14:39:41;;;;;;;12.85;3.72;;;19.10;60.50;;;;;;10459970;28;20493;-63
2021/04/02 14:44:42;;;;;;;11.20;4.00;;;19.10;60.30;;;;;;10460257;28;20485;-64
2021/04/02 14:49:43;;;;;;;15.07;3.92;;;19.10;60.40;;;;;;10459356;28;20031;-65
2021/04/02 14:54:43;;;;;;;8.77;3.58;;;19.10;60.50;;;;;;10459510;28;20043;-63
2021/04/02 14:59:45;;;;;;;10.80;3.42;;;19.10;60.30;;;;;;10473994;28;20397;-62
2021/04/02 15:04:45;;;;;;;22.55;4.93;;;19.10;60.70;;;;;;10491589;28;20033;-58
2021/04/02 15:09:46;;;;;;;20.65;5.80;;;19.00;61.60;;;;;;10475158;28;20525;-58
2021/04/02 15:14:46;;;;;;;21.73;3.78;;;19.10;61.60;;;;;;10471612;28;20537;-57
2021/04/02 15:19:47;;;;;;;26.50;4.95;;;19.10;61.50;;;;;;10464062;28;20105;-57
2021/04/02 15:24:48;;;;;;;17.88;4.43;;;19.20;61.80;;;;;;10460774;28;20073;-56
2021/04/02 15:29:49;;;;;;;22.73;5.15;;;19.10;63.10;;;;;;10458245;28;20477;-58
2021/04/02 15:34:50;;;;;;;26.67;8.52;;;19.10;62.70;;;;;;10490526;28;20048;-58
2021/04/02 15:39:51;;;;;;;21.48;9.27;;;19.10;60.80;;;;;;10457689;28;20029;-57
2021/04/02 15:44:51;;;;;;;25.23;9.15;;;19.10;60.10;;;;;;10475898;28;20029;-57
2021/04/02 15:49:54;;;;;;;21.67;10.02;;;19.20;59.00;;;;;;10487168;28;20533;-57
2021/04/02 15:54:54;;;;;;;22.58;8.98;;;19.20;58.10;;;;;;10457346;28;20538;-58
2021/04/02 15:59:55;;;;;;;21.73;8.98;;;19.20;57.50;;;;;;10456516;28;20074;-57
2021/04/02 16:04:56;;;;;;;23.55;7.15;;;19.10;58.40;;;;;;10477921;28;20127;-58
2021/04/02 16:09:56;;;;;;;29.85;8.30;;;19.30;59.60;;;;;;10465690;28;20108;-57
2021/04/02 16:14:57;;;;;;;20.27;10.40;;;19.20;58.10;;;;;;10464320;28;20041;-57
2021/04/02 16:19:58;;;;;;;18.27;8.73;;;19.30;57.00;;;;;;10456431;28;20071;-59
2021/04/02 16:24:59;;;;;;;15.75;7.43;;;19.30;56.00;;;;;;10478507;28;20071;-57
2021/04/02 16:30:04;;;;;;;17.60;7.85;;;19.40;56.10;;;;;;10488925;28;20025;-57
2021/04/02 16:35:08;;;;;;;16.70;6.68;;;19.50;56.30;;;;;;10469881;28;20470;-56
2021/04/02 16:40:12;;;;;;;17.52;6.07;;;19.50;56.40;;;;;;10483212;28;20031;-59
2021/04/02 16:45:14;;;;;;;15.00;4.95;;;19.50;55.50;;;;;;10464666;28;20407;-58
2021/04/02 16:50:16;;;;;;;17.05;5.63;;;19.50;55.70;;;;;;10458855;28;20024;-57
2021/04/02 16:55:17;;;;;;;17.70;5.15;;;19.40;56.60;;;;;;10470522;28;20197;-58
2021/04/02 17:00:20;;;;;;;18.25;4.88;;;19.50;57.30;;;;;;10496681;28;20032;-57
2021/04/02 17:05:21;;;;;;;14.57;4.85;;;19.40;57.30;;;;;;10482031;28;20040;-58
2021/04/02 17:10:22;;;;;;;15.07;4.63;;;19.40;58.10;;;;;;10462762;28;20036;-58
2021/04/02 17:15:22;;;;;;;13.55;4.75;;;19.30;57.70;;;;;;10481024;28;20025;-58
2021/04/02 17:20:23;;;;;;;15.68;4.75;;;19.20;57.40;;;;;;10494983;28;20377;-59
2021/04/02 17:25:24;;;;;;;11.77;4.05;;;19.10;57.40;;;;;;10488940;28;20048;-58
2021/04/02 17:30:25;;;;;;;10.20;2.95;;;19.00;57.60;;;;;;10478437;28;20031;-58
2021/04/02 17:35:26;;;;;;;8.65;3.45;;;18.90;57.30;;;;;;10450295;28;20033;-59
2021/04/02 17:40:27;;;;;;;12.23;3.45;;;18.90;57.20;;;;;;10459808;28;20108;-59
2021/04/02 17:45:28;;;;;;;11.70;3.60;;;18.80;58.00;;;;;;10458624;28;20044;-59
2021/04/02 17:50:29;;;;;;;17.02;4.32;;;18.80;58.30;;;;;;10455792;28;20331;-57
2021/04/02 17:55:32;;;;;;;13.40;3.58;;;18.70;58.40;;;;;;10439698;28;20025;-56
2021/04/02 18:00:33;;;;;;;12.20;3.55;;;18.70;58.30;;;;;;10453957;28;20025;-58
2021/04/02 18:05:34;;;;;;;9.38;3.20;;;18.60;58.40;;;;;;10458721;28;20132;-57
2021/04/02 18:10:35;;;;;;;9.45;2.78;;;18.60;58.70;;;;;;10466668;28;20078;-56
2021/04/02 18:15:36;;;;;;;7.80;3.88;;;18.60;58.50;;;;;;10457369;28;20031;-58
2021/04/02 18:20:36;;;;;;;5.40;2.20;;;18.50;58.60;;;;;;10455784;28;20078;-58
2021/04/02 18:25:41;;;;;;;13.20;3.13;;;18.50;58.60;;;;;;10456377;28;20087;-58
2021/04/02 18:30:43;;;;;;;10.15;2.83;;;18.40;58.70;;;;;;10457016;28;20029;-56
2021/04/02 18:35:44;;;;;;;10.00;2.40;;;18.40;58.00;;;;;;10456674;28;20029;-57
2021/04/02 18:40:45;;;;;;;10.60;2.58;;;18.40;57.50;;;;;;10450662;28;20033;-57
2021/04/02 18:45:45;;;;;;;12.02;3.35;;;18.40;57.60;;;;;;10448062;28;20470;-57
2021/04/02 18:50:46;;;;;;;9.30;2.85;;;18.30;58.30;;;;;;10431494;28;20493;-56
2021/04/02 18:55:47;;;;;;;8.30;3.15;;;18.30;58.40;;;;;;10427687;28;20457;-57
2021/04/02 19:00:48;;;;;;;17.52;4.10;;;18.30;58.50;;;;;;10437757;28;20421;-54
2021/04/02 19:05:49;;;;;;;11.43;2.85;;;18.30;58.60;;;;;;10456248;28;20412;-54
2021/04/02 19:10:50;;;;;;;6.93;2.65;;;18.30;58.90;;;;;;10457435;28;20108;-54
2021/04/02 19:15:50;;;;;;;8.98;3.08;;;18.30;58.90;;;;;;10453015;28;20030;-56
2021/04/02 19:20:51;;;;;;;9.18;2.85;;;18.20;58.80;;;;;;10450148;28;20119;-57
2021/04/02 19:25:52;;;;;;;8.27;3.38;;;18.20;58.90;;;;;;10451405;28;20180;-56
2021/04/02 19:30:53;;;;;;;5.07;2.53;;;18.20;58.90;;;;;;10442858;28;20124;-56
2021/04/02 19:35:54;;;;;;;3.92;2.25;;;18.20;59.00;;;;;;10481669;28;20025;-56
2021/04/02 19:40:54;;;;;;;8.20;2.45;;;18.20;58.90;;;;;;10460687;28;20047;-55
2021/04/02 19:45:55;;;;;;;8.68;3.03;;;18.10;58.80;;;;;;10457367;28;20025;-56
2021/04/02 19:50:56;;;;;;;7.22;2.47;;;18.20;58.80;;;;;;10456134;28;20071;-55
2021/04/02 19:55:57;;;;;;;4.90;1.60;;;18.10;58.70;;;;;;10494822;28;20115;-56
2021/04/02 20:00:58;;;;;;;7.97;2.30;;;18.10;58.70;;;;;;10485728;28;20107;-55
2021/04/02 20:05:59;;;;;;;6.70;2.35;;;18.10;58.70;;;;;;10456506;28;20039;-55
2021/04/02 20:11:00;;;;;;;4.53;1.60;;;18.00;58.60;;;;;;10454151;28;20025;-56
2021/04/02 20:16:01;;;;;;;5.78;2.45;;;18.00;58.60;;;;;;10461492;28;20116;-56
2021/04/02 20:21:02;;;;;;;4.82;2.10;;;18.00;58.70;;;;;;10460402;28;20388;-56
2021/04/02 20:26:03;;;;;;;4.97;2.13;;;18.00;58.70;;;;;;10474708;28;20197;-56
2021/04/02 20:31:03;;;;;;;3.97;2.20;;;18.00;58.60;;;;;;10462806;28;20082;-56
2021/04/02 20:36:04;;;;;;;7.63;2.10;;;17.90;58.70;;;;;;10497459;28;20040;-56
2021/04/02 20:41:06;;;;;;;4.60;2.35;;;17.90;58.70;;;;;;10485027;28;20024;-55
2021/04/02 20:46:07;;;;;;;5.85;2.47;;;17.90;58.70;;;;;;10464704;28;20032;-55
2021/04/02 20:51:07;;;;;;;5.95;2.13;;;17.90;59.30;;;;;;10466667;28;20421;-55
2021/04/02 20:56:08;;;;;;;4.38;1.90;;;17.80;58.50;;;;;;10494178;28;20032;-56
2021/04/02 21:01:09;;;;;;;4.75;1.70;;;17.90;58.60;;;;;;10473393;28;20032;-55
2021/04/02 21:06:10;;;;;;;5.05;2.50;;;17.80;58.50;;;;;;10486859;28;20055;-56
2021/04/02 21:11:10;;;;;;;6.55;2.25;;;17.80;58.50;;;;;;10454543;28;20098;-56
2021/04/02 21:16:11;;;;;;;5.55;2.47;;;17.80;58.50;;;;;;10469670;28;20469;-56
2021/04/02 21:21:12;;;;;;;3.95;2.38;;;17.80;58.60;;;;;;10458994;28;20075;-56
2021/04/02 21:26:12;;;;;;;4.50;2.10;;;17.80;58.50;;;;;;10471660;28;20131;-56
2021/04/02 21:31:13;;;;;;;4.28;1.90;;;17.70;58.40;;;;;;10460904;28;20036;-55
2021/04/02 21:36:14;;;;;;;8.43;2.40;;;17.70;58.40;;;;;;10495741;28;20020;-56
2021/04/02 21:41:15;;;;;;;5.25;2.58;;;17.70;58.30;;;;;;10485937;28;20493;-55
2021/04/02 21:46:15;;;;;;;4.03;2.33;;;17.70;58.50;;;;;;10447403;28;20036;-56
2021/04/02 21:51:16;;;;;;;6.25;2.25;;;17.70;58.60;;;;;;10486985;28;20079;-56
2021/04/02 21:56:17;;;;;;;4.55;2.28;;;17.70;58.60;;;;;;10454997;28;20111;-56
2021/04/02 22:01:18;;;;;;;5.47;2.55;;;17.60;58.50;;;;;;10468984;28;20020;-55
2021/04/02 22:06:18;;;;;;;4.03;2.17;;;17.70;58.00;;;;;;10471128;28;20056;-55
2021/04/02 22:11:19;;;;;;;5.43;1.88;;;17.70;57.90;;;;;;10461735;28;20454;-55
2021/04/02 22:16:20;;;;;;;5.05;2.50;;;17.70;57.90;;;;;;10471255;28;20124;-55
2021/04/02 22:21:21;;;;;;;6.68;2.75;;;17.70;57.90;;;;;;10461164;28;20099;-55
2021/04/02 22:26:25;;;;;;;4.10;2.03;;;17.70;57.90;;;;;;10494285;28;20056;-55
2021/04/02 22:31:27;;;;;;;4.60;2.72;;;17.70;57.80;;;;;;10499968;28;20039;-55
2021/04/02 22:36:32;;;;;;;5.07;2.17;;;17.70;57.60;;;;;;10467987;28;20037;-54
2021/04/02 22:41:33;;;;;;;4.50;2.40;;;17.70;57.60;;;;;;10459880;28;20033;-55
2021/04/02 22:46:34;;;;;;;4.28;2.47;;;17.70;57.60;;;;;;10459736;28;20041;-55
2021/04/02 22:51:34;;;;;;;4.95;2.20;;;17.70;57.60;;;;;;10459554;28;20047;-54
2021/04/02 22:56:35;;;;;;;4.32;2.10;;;17.70;57.60;;;;;;10488810;28;20068;-55
2021/04/02 23:01:36;;;;;;;4.57;2.30;;;17.70;57.60;;;;;;10465269;28;20108;-55
2021/04/02 23:06:37;;;;;;;5.32;2.35;;;17.70;57.50;;;;;;10485494;28;20033;-55
2021/04/02 23:11:38;;;;;;;5.82;2.40;;;17.70;57.30;;;;;;10491983;28;20064;-55
2021/04/02 23:16:38;;;;;;;2.67;1.67;;;17.70;57.30;;;;;;10481135;28;20036;-55
2021/04/02 23:21:39;;;;;;;5.82;2.85;;;17.70;57.30;;;;;;10498945;28;20048;-55
2021/04/02 23:26:40;;;;;;;4.50;1.92;;;17.70;57.30;;;;;;10466451;28;20049;-55
2021/04/02 23:31:41;;;;;;;3.90;2.08;;;17.70;57.30;;;;;;10482146;28;20039;-55
2021/04/02 23:36:41;;;;;;;2.55;1.55;;;17.70;57.20;;;;;;10467169;28;20040;-55
2021/04/02 23:41:42;;;;;;;4.88;2.22;;;17.70;57.10;;;;;;10457859;28;20117;-56
2021/04/02 23:46:43;;;;;;;4.00;1.90;;;17.60;57.00;;;;;;10457749;28;20505;-55
2021/04/02 23:51:44;;;;;;;4.32;1.80;;;17.60;57.00;;;;;;10457456;28;20060;-56
2021/04/02 23:56:44;;;;;;;4.53;1.73;;;17.60;57.10;;;;;;10474589;28;20029;-56
